Time;durP1;ratioP1;P1;durP2;ratioP2;P2;SDS_P1;SDS_P2;PMS_P1;PMS_P2;Temp;Humidity;BMP_temperature;BMP_pressure;BME280_temperature;BME280_humidity;BME280_pressure;Samples;Min_cycle;Max_cycle;Signal;HPM_P1;HPM_P2
2022/12/18 00:01:37;;;;;;;146.85;37.70;;;;;;;-5.94;97.19;100847.38;8386335;28;20041;-77
2022/12/18 00:05:46;;;;;;;152.43;37.90;;;;;;;-5.93;97.59;100849.03;8387710;28;20053;-77
2022/12/18 00:09:47;;;;;;;148.38;39.13;;;;;;;-5.86;97.08;100849.97;8377940;28;20052;-77
2022/12/18 00:13:48;;;;;;;150.07;35.97;;;;;;;-5.86;97.25;100849.16;8382148;28;20146;-77
2022/12/18 00:17:49;;;;;;;143.85;37.42;;;;;;;-5.85;97.37;100851.63;8377010;28;20052;-77
2022/12/18 00:21:50;;;;;;;157.23;39.05;;;;;;;-5.79;97.24;100851.00;8344478;28;20453;-77
2022/12/18 00:25:52;;;;;;;159.13;38.70;;;;;;;-5.85;97.28;100856.91;8378948;28;20037;-77
2022/12/18 00:29:52;;;;;;;159.52;40.00;;;;;;;-5.88;97.41;100862.53;8383059;28;20075;-76
2022/12/18 00:33:55;;;;;;;151.23;37.10;;;;;;;-5.81;97.47;100874.00;8370897;28;20045;-77
2022/12/18 00:37:56;;;;;;;151.93;38.75;;;;;;;-5.83;97.33;100860.22;8372951;28;20090;-77
2022/12/18 00:46:16;;;;;;;165.93;39.22;;;;;;;-5.88;98.06;100883.56;8375505;28;20103;-77
2022/12/18 00:50:18;;;;;;;165.38;37.80;;;;;;;-5.84;97.80;100878.78;8381405;28;20127;-77
2022/12/18 00:54:19;;;;;;;161.52;36.72;;;;;;;-5.81;97.59;100883.72;8375335;28;20052;-77
2022/12/18 00:58:20;;;;;;;152.98;37.63;;;;;;;-5.90;97.65;100890.78;8379237;28;20079;-77
2022/12/18 01:02:21;;;;;;;157.45;36.30;;;;;;;-5.86;97.54;100897.34;8381973;28;20406;-77
2022/12/18 01:06:22;;;;;;;167.55;40.78;;;;;;;-5.95;97.80;100908.88;8376155;28;20045;-77
2022/12/18 01:10:23;;;;;;;163.57;39.25;;;;;;;-5.88;97.67;100909.88;8381709;28;20127;-77
2022/12/18 01:14:24;;;;;;;164.75;38.85;;;;;;;-5.88;98.11;100928.31;8377711;28;20049;-78
2022/12/18 01:18:25;;;;;;;181.60;41.85;;;;;;;-5.92;98.12;100929.56;8375446;28;20040;-77
2022/12/18 01:22:26;;;;;;;157.88;40.15;;;;;;;-6.01;98.27;100930.53;8367586;28;20045;-77
2022/12/18 01:26:29;;;;;;;152.55;38.47;;;;;;;-6.02;97.90;100934.13;8389212;28;20040;-77
2022/12/18 01:30:30;;;;;;;136.45;36.05;;;;;;;-6.07;97.81;100925.91;8349777;28;20415;-77
2022/12/18 01:34:31;;;;;;;142.40;36.72;;;;;;;-6.10;97.71;100934.09;8365470;28;20049;-77
2022/12/18 01:38:32;;;;;;;144.55;35.20;;;;;;;-6.13;97.69;100943.13;8375301;28;20328;-77
2022/12/18 01:42:33;;;;;;;140.85;33.17;;;;;;;-6.11;97.63;100940.34;8326108;28;20056;-77
2022/12/18 01:46:35;;;;;;;132.23;34.30;;;;;;;-6.04;97.69;100946.63;8379138;28;20111;-78
2022/12/18 01:50:42;;;;;;;130.38;32.38;;;;;;;-6.05;97.48;100955.50;8372515;28;20056;-77
2022/12/18 01:54:43;;;;;;;;;;;;;;;-6.07;97.53;100962.72;8358632;28;20491;-78
2022/12/18 01:58:44;;;;;;;;;;;;;;;-6.08;97.75;100961.09;8377620;28;19927;-77
2022/12/18 02:02:46;;;;;;;;;;;;;;;-6.23;98.13;100967.88;8380812;28;19940;-77
2022/12/18 02:06:46;;;;;;;;;;;;;;;-6.14;98.20;100961.72;8374456;28;19956;-77
2022/12/18 02:11:06;;;;;;;;;;;;;;;-6.28;98.92;100959.63;8379971;28;19928;-77
2022/12/18 02:15:10;;;;;;;;;;;;;;;-6.23;99.15;100962.63;8381514;28;19982;-78
2022/12/18 02:19:17;;;;;;;;;;;;;;;-6.18;98.99;100965.59;8374473;28;20371;-77
2022/12/18 02:23:20;;;;;;;;;;;;;;;-6.14;99.37;100966.97;8371445;28;20294;-76
2022/12/18 02:27:21;;;;;;;;;;;;;;;-6.06;98.96;100980.16;8371368;28;19928;-77
2022/12/18 02:31:24;;;;;;;;;;;;;;;-6.10;99.35;100984.09;8387385;28;20370;-77
2022/12/18 02:35:26;;;;;;;;;;;;;;;-6.03;99.02;100975.41;8385496;28;19920;-77
2022/12/18 02:39:26;;;;;;;;;;;;;;;-5.92;98.86;100976.94;8383320;28;19921;-77
2022/12/18 02:43:27;;;;;;;;;;;;;;;-5.83;98.74;100981.25;8340688;28;19920;-78
2022/12/18 02:47:29;;;;;;;;;;;;;;;-5.82;98.68;100982.91;8329512;28;19953;-77
2022/12/18 02:51:33;;;;;;;;;;;;;;;-5.82;98.55;100988.16;8327337;28;19944;-77
2022/12/18 02:55:36;;;;;;;;;;;;;;;-5.79;98.73;100979.94;8324265;28;19924;-78
2022/12/18 02:59:39;;;;;;;;;;;;;;;-5.76;98.72;100982.25;8346193;28;19927;-78
2022/12/18 03:03:42;;;;;;;;;;;;;;;-5.71;98.38;100981.81;8314297;28;19931;-77
2022/12/18 03:07:53;;;;;;;;;;;;;;;-5.70;98.52;100986.88;8328606;28;19921;-77
2022/12/18 03:16:20;;;;;;;;;;;;;;;-5.78;98.86;100993.94;8380506;28;19944;-77
2022/12/18 03:20:21;;;;;;;;;;;;;;;-5.76;98.78;100995.41;8362185;28;19920;-77
2022/12/18 03:24:22;;;;;;;;;;;;;;;-5.81;98.91;101000.31;8393884;28;20294;-77
2022/12/18 03:28:23;;;;;;;;;;;;;;;-5.73;98.95;101002.16;8383880;28;19921;-77
2022/12/18 03:32:26;;;;;;;;;;;;;;;-5.83;99.15;101002.28;8387236;28;19974;-77
2022/12/18 03:36:26;;;;;;;;;;;;;;;-5.93;99.48;101009.50;8388707;28;19920;-78
2022/12/18 03:40:30;;;;;;;;;;;;;;;-5.91;99.96;101015.41;8383772;28;19924;-77
2022/12/18 03:44:45;;;;;;;;;;;;;;;-5.93;99.88;101020.03;8381845;28;20049;-76
2022/12/18 03:48:50;;;;;;;;;;;;;;;-5.93;99.96;101022.66;8378825;28;19920;-77
2022/12/18 03:52:59;;;;;;;;;;;;;;;-5.80;99.62;101016.94;8378604;28;20271;-77
2022/12/18 03:57:09;;;;;;;;;;;;;;;-5.80;99.49;101028.28;8383859;28;19928;-77
2022/12/18 04:01:10;;;;;;;;;;;;;;;-5.75;99.41;101020.75;8379999;28;19920;-77
2022/12/18 04:05:11;;;;;;;;;;;;;;;-5.81;99.37;101031.88;8384317;28;19921;-78
2022/12/18 04:09:11;;;;;;;;;;;;;;;-5.85;99.77;101030.56;8378958;28;19921;-77
2022/12/18 04:13:13;;;;;;;;;;;;;;;-5.82;99.92;101027.63;8370230;28;19944;-77
2022/12/18 04:17:13;;;;;;;;;;;;;;;-5.69;99.40;101035.91;8382703;28;20012;-77
2022/12/18 04:21:14;;;;;;;;;;;;;;;-5.68;99.27;101042.00;8376688;28;20015;-77
2022/12/18 04:25:15;;;;;;;;;;;;;;;-5.67;99.17;101039.22;8385194;28;20371;-77
2022/12/18 04:29:16;;;;;;;;;;;;;;;-5.72;99.46;101041.50;8384023;28;19973;-77
2022/12/18 04:33:16;;;;;;;;;;;;;;;-5.74;99.48;101048.72;8376712;28;20030;-78
2022/12/18 04:37:17;;;;;;;;;;;;;;;-5.88;99.61;101062.50;8379262;28;19928;-77
2022/12/18 04:41:18;;;;;;;;;;;;;;;-5.81;99.55;101058.19;8382519;28;19982;-77
2022/12/18 04:45:19;;;;;;;;;;;;;;;-5.72;99.53;101073.09;8374319;28;19928;-78
2022/12/18 04:49:20;;;;;;;;;;;;;;;-5.79;99.35;101072.03;8379577;28;19928;-77
2022/12/18 04:53:20;;;;;;;;;;;;;;;-5.87;99.93;101085.19;8373643;28;19944;-76
2022/12/18 04:57:21;;;;;;;;;;;;;;;-5.92;100.00;101090.06;8378747;28;19920;-78
2022/12/18 05:01:22;;;;;;;;;;;;;;;-5.91;100.00;101094.34;8383785;28;19920;-77
2022/12/18 05:05:23;;;;;;;;;;;;;;;-5.92;100.00;101092.69;8372564;28;19927;-78
2022/12/18 05:09:24;;;;;;;;;;;;;;;-5.87;100.00;101094.88;8378811;28;19920;-78
2022/12/18 05:13:24;;;;;;;;;;;;;;;-5.81;100.00;101100.31;8375861;28;20327;-77
2022/12/18 05:17:25;;;;;;;;;;;;;;;-5.75;100.00;101104.94;8371663;28;19928;-78
2022/12/18 05:21:26;;;;;;;;;;;;;;;-5.64;100.00;101094.16;8385515;28;19928;-77
2022/12/18 05:25:27;;;;;;;;;;;;;;;-5.58;99.86;101090.91;8382848;28;19932;-77
2022/12/18 05:29:27;;;;;;;;;;;;;;;-5.70;100.00;101097.41;8382526;28;20348;-76
2022/12/18 05:33:30;;;;;;;;;;;;;;;-5.66;100.00;101104.00;8376346;28;19935;-77
2022/12/18 05:37:31;;;;;;;;;;;;;;;-5.67;100.00;101107.66;8374320;28;20432;-77
2022/12/18 05:41:32;;;;;;;;;;;;;;;-5.73;99.97;101113.53;8377857;28;20032;-77
2022/12/18 05:45:33;;;;;;;;;;;;;;;-5.75;100.00;101115.47;8371274;28;19936;-78
2022/12/18 05:49:34;;;;;;;;;;;;;;;-5.74;100.00;101117.13;8365720;28;20362;-77
2022/12/18 05:53:34;;;;;;;;;;;;;;;-5.77;100.00;101122.72;8370568;28;20023;-77
2022/12/18 05:57:35;;;;;;;;;;;;;;;-5.76;100.00;101124.34;8352947;28;19939;-78
2022/12/18 06:01:36;;;;;;;;;;;;;;;-5.76;100.00;101134.88;8354267;28;20018;-77
2022/12/18 06:05:38;;;;;;;;;;;;;;;-5.69;100.00;101141.19;8376161;28;19928;-77
2022/12/18 06:09:39;;;;;;;;;;;;;;;-5.73;100.00;101139.84;8369411;28;19936;-77
2022/12/18 06:13:40;;;;;;;;;;;;;;;-5.75;100.00;101146.22;8374709;28;19920;-77
2022/12/18 06:17:40;;;;;;;;;;;;;;;-5.69;100.00;101151.72;8368645;28;19928;-77
2022/12/18 06:21:41;;;;;;;;;;;;;;;-5.72;100.00;101173.09;8354216;28;20271;-77
2022/12/18 06:25:42;;;;;;;;;;;;;;;-5.75;100.00;101178.66;8377157;28;19921;-77
2022/12/18 06:29:43;;;;;;;;;;;;;;;-5.75;100.00;101181.28;8368808;28;19921;-77
2022/12/18 06:33:44;;;;;;;;;;;;;;;-5.74;100.00;101180.31;8374040;28;20340;-78
2022/12/18 06:37:45;;;;;;;;;;;;;;;-5.74;100.00;101185.56;8368384;28;20275;-78
2022/12/18 06:41:46;;;;;;;;;;;;;;;-5.66;100.00;101188.25;8369576;28;19924;-78
2022/12/18 06:45:52;;;;;;;;;;;;;;;-5.72;100.00;101193.31;8374030;28;20010;-77
2022/12/18 06:49:53;;;;;;;;;;;;;;;-5.73;100.00;101195.13;8381234;28;19928;-78
2022/12/18 06:53:54;;;;;;;;;;;;;;;-5.65;100.00;101199.59;8378471;28;19921;-77
2022/12/18 06:57:54;;;;;;;;;;;;;;;-5.73;100.00;101208.28;8380597;28;19924;-78
2022/12/18 07:01:55;;;;;;;;;;;;;;;-5.69;100.00;101214.88;8375061;28;20196;-78
2022/12/18 07:05:56;;;;;;;;;;;;;;;-5.71;100.00;101211.56;8348285;28;19987;-77
2022/12/18 07:09:57;;;;;;;;;;;;;;;-5.69;100.00;101214.88;8366820;28;19946;-77
2022/12/18 07:14:00;;;;;;;;;;;;;;;-5.62;100.00;101221.19;8374148;28;20007;-77
2022/12/18 07:18:01;;;;;;;;;;;;;;;-5.58;100.00;101222.53;8386223;28;19920;-77
2022/12/18 07:22:02;;;;;;;;;;;;;;;-5.55;100.00;101222.22;8359808;28;20003;-78
2022/12/18 07:26:03;;;;;;;;;;;;;;;-5.54;100.00;101223.06;8372619;28;19920;-77
2022/12/18 07:30:04;;;;;;;;;;;;;;;-5.62;100.00;101226.47;8350109;28;19928;-78
2022/12/18 07:34:09;;;;;;;;;;;;;;;-5.58;100.00;101227.81;8355505;28;19970;-78
2022/12/18 07:38:10;;;;;;;;;;;;;;;-5.51;100.00;101238.56;8382273;28;19978;-75
2022/12/18 07:46:30;;;;;;;;;;;;;;;-5.70;100.00;101234.28;8361901;28;19935;-75
2022/12/18 07:50:31;;;;;;;;;;;;;;;-5.65;100.00;101242.53;8391926;28;19950;-75
2022/12/18 07:54:32;;;;;;;;;;;;;;;-5.63;99.89;101239.78;8381496;28;19924;-75
2022/12/18 07:58:33;;;;;;;;;;;;;;;-5.67;99.67;101243.69;8385347;28;19924;-76
2022/12/18 08:02:33;;;;;;;;;;;;;;;-5.61;99.50;101249.19;8371716;28;19994;-76
2022/12/18 08:06:34;;;;;;;;;;;;;;;-5.64;99.37;101248.63;8391379;28;19965;-77
2022/12/18 08:10:35;;;;;;;;;;;;;;;-5.62;98.88;101258.06;8367032;28;19924;-75
2022/12/18 08:14:36;;;;;;;;;;;;;;;-5.60;98.88;101271.88;8378218;28;20036;-76
2022/12/18 08:18:37;;;;;;;;;;;;;;;-5.36;98.59;101273.06;8367622;28;20290;-76
2022/12/18 08:22:38;;;;;;;;;;;;;;;-5.17;96.61;101283.41;8395133;28;19966;-75
2022/12/18 08:26:39;;;;;;;;;;;;;;;-5.31;96.77;101281.31;8380969;28;19928;-75
2022/12/18 08:30:40;;;;;;;;;;;;;;;-5.25;96.67;101291.25;8355237;28;19920;-75
2022/12/18 08:34:41;;;;;;;;;;;;;;;-5.42;96.53;101289.47;8385224;28;19921;-75
2022/12/18 08:38:42;;;;;;;;;;;;;;;-5.47;96.31;101318.06;8376021;28;19920;-75
2022/12/18 08:47:02;;;;;;;;;;;;;;;-5.48;96.96;101306.69;8374957;28;19920;-75
2022/12/18 08:51:03;;;;;;;;;;;;;;;-5.45;96.11;101326.66;8378659;28;19924;-75
2022/12/18 08:55:04;;;;;;;;;;;;;;;-5.49;97.32;101325.28;8373276;28;19934;-75
2022/12/18 08:59:06;;;;;;;;;;;;;;;-5.47;96.79;101328.59;8371698;28;20007;-75
2022/12/18 09:03:11;;;;;;;;;;;;;;;-5.44;96.79;101325.66;8356652;28;19928;-75
2022/12/18 09:07:12;;;;;;;;;;;;;;;-5.35;96.74;101322.13;8378432;28;19933;-75
2022/12/18 09:11:19;;;;;;;;;;;;;;;-5.19;96.48;101317.00;8371113;28;19947;-75
2022/12/18 09:15:20;;;;;;;;;;;;;;;-5.23;96.92;101310.34;8373813;28;19920;-74
2022/12/18 09:19:21;;;;;;;;;;;;;;;-5.19;96.77;101317.00;8374581;28;19921;-76
2022/12/18 09:23:22;;;;;;;;;;;;;;;-5.18;96.12;101297.59;8351978;28;20367;-76
2022/12/18 09:27:23;;;;;;;;;;;;;;;-5.19;95.56;101290.66;8382169;28;19920;-75
2022/12/18 09:31:24;;;;;;;;;;;;;;;-5.26;95.57;101286.97;8379615;28;19920;-76
2022/12/18 09:35:25;;;;;;;;;;;;;;;-5.36;96.10;101278.31;8378042;28;19921;-75
2022/12/18 09:39:26;;;;;;;;;;;;;;;-5.31;96.46;101276.06;8369590;28;20315;-77
2022/12/18 09:43:34;;;;;;;;;;;;;;;-5.30;96.38;101269.81;8381667;28;19931;-75
2022/12/18 09:47:35;;;;;;;;;;;;;;;-5.25;96.54;101264.91;8347031;28;19920;-75
2022/12/18 09:51:40;;;;;;;;;;;;;;;-5.18;95.85;101256.22;8382858;28;19927;-76
2022/12/18 09:55:41;;;;;;;;;;;;;;;-5.06;95.40;101248.91;8381160;28;19927;-75
2022/12/18 09:59:42;;;;;;;;;;;;;;;-5.02;95.61;101260.78;8381839;28;20373;-75
2022/12/18 10:03:43;;;;;;;;;;;;;;;-5.03;95.69;101253.88;8365242;28;19983;-75
2022/12/18 10:07:54;;;;;;;;;;;;;;;-5.06;95.39;101269.16;8377771;28;19924;-75
2022/12/18 10:12:04;;;;;;;;;;;;;;;-4.83;95.57;101257.94;8374026;28;19920;-76
2022/12/18 10:16:28;;;;;;;;;;;;;;;-4.81;95.10;101263.88;8372984;28;19944;-73
2022/12/18 10:20:32;;;;;;;;;;;;;;;-4.88;94.77;101262.84;8298464;28;19925;-73
2022/12/18 10:24:34;;;;;;;;;;;;;;;-5.14;94.77;101262.03;8311582;28;20016;-74
2022/12/18 10:28:36;;;;;;;;;;;;;;;-5.00;94.73;101264.09;8303239;28;19956;-74
2022/12/18 10:32:36;;;;;;;;;;;;;;;-4.98;94.52;101256.88;8299197;28;19996;-75
2022/12/18 10:36:38;;;;;;;;;;;;;;;-5.08;94.82;101250.06;8310566;28;19925;-75
2022/12/18 10:40:50;;;;;;;;;;;;;;;-4.92;94.83;101258.88;8308001;28;19921;-75
2022/12/18 10:45:00;;;;;;;;;;;;;;;-5.04;94.32;101268.03;8310747;28;20169;-76
2022/12/18 10:49:01;;;;;;;;;;;;;;;-4.96;94.15;101265.44;8305728;28;20369;-76
2022/12/18 10:53:03;;;;;;;;;;;;;;;-4.94;94.27;101273.19;8305888;28;19945;-76
2022/12/18 10:57:14;;;;;;;;;;;;;;;-5.03;93.92;101274.97;8348271;28;20377;-77
2022/12/18 11:01:16;;;;;;;;;;;;;;;-5.14;94.08;101277.84;8379556;28;19920;-76
2022/12/18 11:05:24;;;;;;;;;;;;;;;-5.06;94.48;101285.78;8376775;28;19920;-77
2022/12/18 11:09:32;;;;;;;;;;;;;;;-4.82;93.97;101288.59;8380242;28;19921;-77
2022/12/18 11:13:33;;;;;;;;;;;;;;;-4.99;93.38;101276.28;8323556;28;19924;-76
2022/12/18 11:17:35;;;;;;;;;;;;;;;-4.97;93.82;101284.84;8388415;28;19936;-77
2022/12/18 11:21:42;;;;;;;;;;;;;;;-4.93;93.86;101293.28;8381563;28;20019;-78
2022/12/18 11:25:50;;;;;;;;;;;;;;;-4.87;93.87;101301.41;8380344;28;19947;-77
2022/12/18 11:29:51;;;;;;;;;;;;;;;-4.66;93.55;101302.84;8386256;28;19920;-76
2022/12/18 11:34:04;;;;;;;;;;;;;;;-4.61;93.16;101284.75;8384195;28;19920;-76
2022/12/18 11:38:19;;;;;;;;;;;;;;;-5.00;93.37;101285.19;8377215;28;19924;-78
2022/12/18 11:42:22;;;;;;;;;;;;;;;-4.99;93.38;101291.28;8379340;28;19967;-77
2022/12/18 11:46:28;;;;;;;;;;;;;;;-4.87;93.58;101288.22;8392547;28;19921;-77
2022/12/18 11:50:31;;;;;;;;;;;;;;;-4.64;93.41;101285.88;8347771;28;20355;-76
2022/12/18 11:54:32;;;;;;;;;;;;;;;-4.84;93.25;101280.00;8375911;28;19951;-77
2022/12/18 11:58:36;;;;;;;;;;;;;;;-4.81;93.14;101273.59;8366062;28;19921;-75
2022/12/18 12:02:38;;;;;;;;;;;;;;;-4.78;92.72;101276.75;8374841;28;20381;-75
2022/12/18 12:06:51;;;;;;;;;;;;;;;-4.99;93.28;101270.19;8375999;28;19927;-76
2022/12/18 12:10:52;;;;;;;;;;;;;;;-4.91;92.95;101273.69;8372175;28;19933;-77
2022/12/18 12:14:59;;;;;;;;;;;;;;;-4.89;93.12;101277.00;8386709;28;19921;-74
2022/12/18 12:19:01;;;;;;;;;;;;;;;-4.80;92.70;101269.97;8380978;28;19920;-75
2022/12/18 12:23:06;;;;;;;;;;;;;;;-4.85;92.71;101278.34;8387148;28;20095;-75
2022/12/18 12:27:29;;;;;;;;;;;;;;;-4.97;93.00;101274.31;8373337;28;20410;-75
2022/12/18 12:31:50;;;;;;;;;;;;;;;-5.10;93.37;101263.38;8379385;28;19921;-74
2022/12/18 12:35:57;;;;;;;;;;;;;;;-4.91;93.32;101276.31;8299670;28;19921;-75
2022/12/18 12:39:58;;;;;;;;;;;;;;;-4.94;93.50;101274.00;8317338;28;19921;-76
2022/12/18 12:44:01;;;;;;;;;;;;;;;-4.94;93.43;101284.56;8318896;28;20391;-74
2022/12/18 12:48:02;;;;;;;;;;;;;;;-4.85;93.29;101288.88;8315922;28;19925;-75
2022/12/18 12:52:04;;;;;;;;;;;;;;;-4.90;93.03;101283.25;8305944;28;19992;-75
2022/12/18 12:56:05;;;;;;;;;;;;;;;-4.80;92.93;101276.06;8321524;28;19921;-75
2022/12/18 13:00:10;;;;;;;;;;;;;;;-4.54;92.60;101275.19;8258963;28;20021;-75
2022/12/18 13:04:10;;;;;;;;;;;;;;;-4.54;92.23;101269.94;8253348;28;19921;-75
2022/12/18 13:08:21;;;;;;;;;;;;;;;-4.68;92.20;101274.81;8251940;28;19921;-76
2022/12/18 13:16:42;;;;;;;;;;;;;;;-5.14;92.59;101275.22;8318652;28;19921;-75
2022/12/18 13:21:03;;;;;;;;;;;;;;;-5.24;93.06;101266.56;8275452;28;20100;-74
2022/12/18 13:25:24;;;;;;;;;;;;;;;-5.19;93.14;101264.31;8270831;28;19949;-75
2022/12/18 13:29:44;;;;;;;;;;;;;;;-5.13;93.30;101258.44;8294481;28;19921;-76
2022/12/18 13:33:46;;;;;;;;;;;;;;;-5.04;93.08;101252.22;8348958;28;19928;-76
2022/12/18 13:37:54;;;;;;;;;;;;;;;-5.19;92.92;101259.03;8340272;28;20319;-75
2022/12/18 13:42:04;;;;;;;;;;;;;;;-5.40;93.67;101261.19;8345966;28;19920;-78
2022/12/18 13:46:06;;;;;;;;;;;;;;;-5.45;94.28;101271.34;8334000;28;19920;-78
2022/12/18 13:50:20;;;;;;;;;;;;;;;-5.40;94.12;101277.00;8347040;28;20409;-78
2022/12/18 13:54:24;;;;;;;;;;;;;;;-5.34;94.26;101286.91;8371309;28;19999;-78
2022/12/18 13:58:25;;;;;;;;;;;;;;;-5.40;94.23;101287.53;8378431;28;20005;-77
2022/12/18 14:02:26;;;;;;;;;;;;;;;-5.51;94.41;101285.13;8376120;28;19921;-79
2022/12/18 14:06:28;;;;;;;;;;;;;;;-5.67;94.79;101307.69;8380572;28;19921;-76
2022/12/18 14:10:28;;;;;;;;;;;;;;;-5.78;95.66;101300.00;8375469;28;19999;-78
2022/12/18 14:14:29;;;;;;;;;;;;;;;-5.73;95.66;101303.03;8382060;28;19924;-77
2022/12/18 14:18:36;;;;;;;;;;;;;;;-5.67;95.59;101297.16;8374626;28;19920;-78
2022/12/18 14:22:37;;;;;;;;;;;;;;;-5.66;95.24;101298.78;8375661;28;20007;-78
2022/12/18 14:26:38;;;;;;;;;;;;;;;-5.72;95.43;101315.22;8371124;28;19967;-78
2022/12/18 14:30:40;;;;;;;;;;;;;;;-5.78;95.69;101302.66;8392787;28;19927;-78
2022/12/18 14:34:41;;;;;;;;;;;;;;;-5.83;95.89;101310.16;8388794;28;20031;-75
2022/12/18 14:38:42;;;;;;;;;;;;;;;-5.86;96.10;101313.06;8362490;28;20022;-74
2022/12/18 14:42:42;;;;;;;;;;;;;;;-5.84;96.24;101321.66;8378736;28;19927;-74
2022/12/18 14:46:45;;;;;;;;;;;;;;;-5.82;96.11;101324.97;8378993;28;19935;-76
2022/12/18 14:50:55;;;;;;;;;;;;;;;-5.96;96.13;101317.59;8382910;28;20452;-76
2022/12/18 14:54:56;;;;;;;;;;;;;;;-6.06;96.66;101337.88;8388888;28;20053;-75
2022/12/18 14:59:04;;;;;;;;;;;;;;;-6.02;96.66;101328.72;8386525;28;20349;-75
2022/12/18 15:03:06;;;;;;;;;;;;;;;-5.96;96.40;101328.13;8385477;28;19924;-75
2022/12/18 15:07:09;;;;;;;;;;;;;;;-6.09;97.18;101327.66;8307521;28;19960;-75
2022/12/18 15:11:28;;;;;;;;;;;;;;;-6.07;97.09;101330.97;8298145;28;20039;-75
2022/12/18 15:15:32;;;;;;;;;;;;;;;-6.08;97.03;101330.13;8303076;28;19932;-74
2022/12/18 15:19:40;;;;;;;;;;;;;;;-6.17;97.11;101330.19;8304218;28;20956;-75
2022/12/18 15:23:43;;;;;;;;;;;;;;;-6.31;97.50;101312.28;8320951;28;20014;-74
2022/12/18 15:27:45;;;;;;;;;;;;;;;-6.21;97.62;101307.78;8322122;28;19921;-75
2022/12/18 15:31:58;;;;;;;;;;;;;;;-6.22;97.60;101316.66;8322819;28;20397;-76
2022/12/18 15:35:59;;;;;;;;;;;;;;;-6.30;97.94;101319.19;8313411;28;19959;-76
2022/12/18 15:40:02;;;;;;;;;;;;;;;-6.30;98.14;101313.94;8370667;28;19926;-75
2022/12/18 15:44:04;;;;;;;;;;;;;;;-6.32;98.21;101315.88;8381356;28;19943;-74
2022/12/18 15:48:25;;;;;;;;;;;;;;;-6.35;98.56;101305.66;8386390;28;20366;-76
2022/12/18 15:52:26;;;;;;;;;;;;;;;-6.46;98.82;101302.25;8383121;28;19920;-75
2022/12/18 16:00:47;;;;;;;;;;;;;;;-6.50;99.50;101274.56;8382058;28;19920;-74
2022/12/18 16:04:49;;;;;;;;;;;;;;;-6.49;99.45;101268.34;8376845;28;19974;-75
2022/12/18 16:08:50;;;;;;;;;;;;;;;-6.45;99.60;101268.91;8364832;28;19920;-75
2022/12/18 16:12:52;;;;;;;;;;;;;;;-6.46;99.47;101251.47;8387634;28;19921;-75
2022/12/18 16:16:54;;;;;;;;;;;;;;;-6.52;99.81;101242.38;8386252;28;20279;-75
2022/12/18 16:20:56;;;;;;;;;;;;;;;-6.56;100.00;101241.00;8380734;28;19936;-74
2022/12/18 16:24:59;;;;;;;;;;;;;;;-6.56;100.00;101251.53;8367896;28;19924;-74
2022/12/18 16:29:00;;;;;;;;;;;;;;;-6.54;100.00;101244.31;8386116;28;19924;-75
2022/12/18 16:33:02;;;;;;;;;;;;;;;-6.58;100.00;101250.84;8379374;28;19927;-74
2022/12/18 16:37:04;;;;;;;;;;;;;;;-6.53;100.00;101245.97;8381570;28;19921;-75
2022/12/18 16:41:31;;;;;;;;;;;;;;;-6.45;100.00;101259.19;8385301;28;21467;-74
2022/12/18 16:45:32;;;;;;;;;;;;;;;-6.42;100.00;101277.31;8374125;28;19928;-74
2022/12/18 16:49:33;;;;;;;;;;;;;;;-6.36;100.00;101272.44;8381362;28;19921;-75
2022/12/18 16:53:34;;;;;;;;;;;;;;;-6.41;100.00;101265.84;8387721;28;20007;-75
2022/12/18 16:57:35;;;;;;;;;;;;;;;-6.41;100.00;101271.09;8380127;28;19921;-76
2022/12/18 17:01:37;;;;;;;;;;;;;;;-6.54;100.00;101249.56;8379631;28;19942;-75
2022/12/18 17:05:39;;;;;;;;;;;;;;;-6.58;100.00;101237.69;8366633;28;19921;-74
2022/12/18 17:09:43;;;;;;;;;;;;;;;-6.64;100.00;101246.16;8377488;28;19929;-74
2022/12/18 17:13:44;;;;;;;;;;;;;;;-6.63;100.00;101250.44;8345477;28;19929;-74
2022/12/18 17:17:46;;;;;;;;;;;;;;;-6.75;100.00;101256.84;8375977;28;19958;-74
2022/12/18 17:21:48;;;;;;;;;;;;;;;-6.82;100.00;101255.78;8384577;28;20379;-75
2022/12/18 17:25:49;;;;;;;;;;;;;;;-6.82;100.00;101255.78;8379855;28;19924;-74
2022/12/18 17:29:50;;;;;;;;;;;;;;;-6.88;100.00;101256.38;8362324;28;19928;-75
2022/12/18 17:33:52;;;;;;;;;;;;;;;-6.92;100.00;101254.97;8379674;28;20066;-76
2022/12/18 17:37:53;;;;;;;;;;;;;;;-6.91;100.00;101261.88;8375510;28;20402;-76
2022/12/18 17:41:55;;;;;;;;;;;;;;;-6.98;100.00;101271.34;8370460;28;19927;-75
2022/12/18 17:46:00;;;;;;;;;;;;;;;-7.03;100.00;101281.44;8377942;28;20022;-76
2022/12/18 17:50:01;;;;;;;;;;;;;;;-7.03;100.00;101278.81;8367958;28;19939;-75
2022/12/18 17:54:02;;;;;;;;;;;;;;;-7.09;100.00;101258.38;8376638;28;20382;-74
2022/12/18 17:58:03;;;;;;;;;;;;;;;-7.21;100.00;101270.00;8359530;28;19967;-74
2022/12/18 18:02:07;;;;;;;;;;;;;;;-7.23;100.00;101278.00;8379999;28;19920;-74
2022/12/18 18:06:08;;;;;;;;;;;;;;;-7.28;100.00;101291.56;8381751;28;20019;-75
2022/12/18 18:10:09;;;;;;;;;;;;;;;-7.30;100.00;101283.00;8383353;28;19927;-75
2022/12/18 18:14:12;;;;;;;;;;;;;;;-7.42;100.00;101294.63;8366152;28;19920;-75
2022/12/18 18:18:12;;;;;;;;;;;;;;;-7.47;100.00;101299.47;8388862;28;19927;-74
2022/12/18 18:22:17;;;;;;;;;;;;;;;-7.58;100.00;101304.84;8384279;28;20275;-75
2022/12/18 18:26:18;;;;;;;;;;;;;;;-7.64;100.00;101294.91;8386567;28;19939;-74
2022/12/18 18:30:19;;;;;;;;;;;;;;;-7.69;100.00;101276.13;8350608;28;20008;-74
2022/12/18 18:34:21;;;;;;;;;;;;;;;-7.74;100.00;101267.84;8379680;28;20447;-77
2022/12/18 18:38:22;;;;;;;;;;;;;;;-7.79;100.00;101259.56;8383480;28;19921;-75
2022/12/18 18:42:23;;;;;;;;;;;;;;;-7.82;100.00;101272.91;8381283;28;20357;-74
2022/12/18 18:46:26;;;;;;;;;;;;;;;-7.87;100.00;101267.25;8376910;28;20012;-74
2022/12/18 18:50:29;;;;;;;;;;;;;;;-7.94;100.00;101264.38;8316602;28;19925;-74
2022/12/18 18:54:30;;;;;;;;;;;;;;;-7.96;100.00;101262.84;8376152;28;19920;-75
2022/12/18 18:58:31;;;;;;;;;;;;;;;-7.96;100.00;101252.34;8380749;28;20318;-74
2022/12/18 19:02:33;;;;;;;;;;;;;;;-8.03;100.00;101256.47;8380490;28;20016;-74
2022/12/18 19:06:33;;;;;;;;;;;;;;;-8.09;100.00;101268.38;8349118;28;19927;-74
2022/12/18 19:10:38;;;;;;;;;;;;;;;-8.11;100.00;101255.38;8367639;28;19924;-75
2022/12/18 19:14:40;;;;;;;;;;;;;;;-8.16;100.00;101256.75;8384597;28;20342;-74
2022/12/18 19:18:41;;;;;;;;;;;;;;;-8.13;100.00;101257.31;8347470;28;19956;-74
2022/12/18 19:22:42;;;;;;;;;;;;;;;-8.18;100.00;101248.19;8387161;28;19921;-74
2022/12/18 19:26:43;;;;;;;;;;;;;;;-8.24;100.00;101252.19;8385460;28;19947;-74
2022/12/18 19:30:44;;;;;;;;;;;;;;;-8.20;100.00;101245.72;8386907;28;19929;-74
2022/12/18 19:34:45;;;;;;;;;;;;;;;-8.24;100.00;101252.19;8375797;28;20286;-74
2022/12/18 19:38:49;;;;;;;;;;;;;;;-8.21;100.00;101254.56;8380170;28;19935;-73
2022/12/18 19:42:50;;;;;;;;;;;;;;;-8.21;100.00;101254.56;8380046;28;20007;-74
2022/12/18 19:46:51;;;;;;;;;;;;;;;-8.27;100.00;101247.22;8375460;28;20393;-74
2022/12/18 19:50:53;;;;;;;;;;;;;;;-8.33;100.00;101242.56;8373300;28;19932;-74
2022/12/18 19:54:55;;;;;;;;;;;;;;;-8.36;100.00;101240.22;8374671;28;19928;-74
2022/12/18 19:58:59;;;;;;;;;;;;;;;-8.33;100.00;101234.69;8324670;28;20023;-75
2022/12/18 20:03:00;;;;;;;;;;;;;;;-8.39;100.00;101229.97;8376599;28;20447;-74
2022/12/18 20:07:01;;;;;;;;;;;;;;;-8.45;100.00;101241.00;8381680;28;19927;-74
2022/12/18 20:11:02;;;;;;;;;;;;;;;-8.49;100.00;101221.28;8374832;28;20449;-74
2022/12/18 20:15:03;;;;;;;;;;;;;;;-8.50;100.00;101211.75;8376401;28;20035;-74
2022/12/18 20:19:04;;;;;;;;;;;;;;;-8.54;100.00;101210.38;8380716;28;20379;-75
2022/12/18 20:23:05;;;;;;;;;;;;;;;-8.64;100.00;101214.75;8378586;28;19929;-74
2022/12/18 20:27:07;;;;;;;;;;;;;;;-8.65;100.00;101228.81;8379728;28;19925;-73
2022/12/18 20:31:08;;;;;;;;;;;;;;;-8.69;100.00;101222.19;8376285;28;19982;-74
2022/12/18 20:35:09;;;;;;;;;;;;;;;-8.71;100.00;101213.63;8381560;28;20323;-74
2022/12/18 20:39:10;;;;;;;;;;;;;;;-8.70;100.00;101220.53;8380440;28;19955;-75
2022/12/18 20:43:14;;;;;;;;;;;;;;;-8.79;100.00;101216.09;8376536;28;19973;-74
2022/12/18 20:47:14;;;;;;;;;;;;;;;-8.78;100.00;101223.00;8383170;28;20287;-74
2022/12/18 20:51:19;;;;;;;;;;;;;;;-8.83;99.77;101206.84;8382328;28;19955;-74